createdAt,value
2023-04-09T00:00:06.145Z,7.1333
2023-04-09T00:01:07.206Z,7.1102
2023-04-09T00:02:08.259Z,7.0863
2023-04-09T00:03:09.351Z,7.0622
2023-04-09T00:04:10.595Z,7.0385
2023-04-09T00:05:11.698Z,7.0161
2023-04-09T00:06:12.725Z,6.9962
2023-04-09T00:07:13.792Z,6.9760
2023-04-09T00:08:14.823Z,6.9548
2023-04-09T00:09:15.907Z,6.9327
2023-04-09T00:10:16.896Z,6.9107
2023-04-09T00:11:19.004Z,6.8913
2023-04-09T00:12:20.015Z,6.8712
2023-04-09T00:13:28.587Z,6.8537
2023-04-09T00:14:23.358Z,6.8340
2023-04-09T00:15:31.349Z,6.8168
2023-04-09T00:16:26.391Z,6.7961
2023-04-09T00:17:27.453Z,6.7778
2023-04-09T00:18:28.554Z,6.7582
2023-04-09T00:19:29.607Z,6.7372
2023-04-09T00:20:30.665Z,6.7175
2023-04-09T00:21:31.715Z,6.7019
2023-04-09T00:22:32.819Z,6.6876
2023-04-09T00:23:33.874Z,6.6727
2023-04-09T00:24:34.883Z,6.6566
2023-04-09T00:25:35.904Z,6.6402
2023-04-09T00:26:36.908Z,6.6226
2023-04-09T00:27:37.909Z,6.6068
2023-04-09T00:28:38.958Z,6.5904
2023-04-09T00:29:40.064Z,6.5756
2023-04-09T00:30:41.117Z,6.5607
2023-04-09T00:31:42.260Z,6.5448
2023-04-09T00:32:43.410Z,6.5305
2023-04-09T00:33:44.525Z,6.5158
2023-04-09T00:34:45.581Z,6.5008
2023-04-09T00:35:46.678Z,6.4848
2023-04-09T00:36:47.733Z,6.4664
2023-04-09T00:37:48.828Z,6.4476
2023-04-09T00:38:50.259Z,6.4331
2023-04-09T00:39:51.453Z,6.4179
2023-04-09T00:40:52.554Z,6.4023
2023-04-09T00:41:53.651Z,6.3861
2023-04-09T00:42:54.703Z,6.3694
2023-04-09T00:43:55.799Z,6.3509
2023-04-09T00:44:56.936Z,6.3350
2023-04-09T00:45:58.076Z,6.3202
2023-04-09T00:46:59.141Z,6.3036
2023-04-09T00:48:00.276Z,6.2852
2023-04-09T00:49:01.363Z,6.2682
2023-04-09T00:50:02.485Z,6.2547
2023-04-09T00:51:03.619Z,6.2367
2023-04-09T00:52:04.721Z,6.2198
2023-04-09T00:53:05.826Z,6.2046
2023-04-09T00:54:06.925Z,6.1898
2023-04-09T00:55:08.004Z,6.1759
2023-04-09T00:56:09.149Z,6.1616
2023-04-09T00:57:10.277Z,6.1452
2023-04-09T00:58:11.352Z,6.1285
2023-04-09T00:59:12.450Z,6.1126
2023-04-09T01:00:13.555Z,6.0939
2023-04-09T01:01:14.771Z,6.0783
2023-04-09T01:02:16.001Z,6.0647
2023-04-09T01:03:17.175Z,6.0518
2023-04-09T01:04:18.256Z,6.0400
2023-04-09T01:05:19.346Z,6.0273
2023-04-09T01:06:20.464Z,6.0153
2023-04-09T01:07:21.643Z,6.0020
2023-04-09T01:08:22.839Z,5.9890
2023-04-09T01:09:23.975Z,5.9772
2023-04-09T01:10:25.148Z,5.9648
2023-04-09T01:11:26.271Z,5.9545
2023-04-09T01:12:27.356Z,5.9421
2023-04-09T01:13:28.449Z,5.9316
2023-04-09T01:14:29.553Z,5.9196
2023-04-09T01:15:30.636Z,5.9085
2023-04-09T01:16:31.749Z,5.8985
2023-04-09T01:17:32.901Z,5.8880
2023-04-09T01:18:34.029Z,5.8787
2023-04-09T01:19:35.519Z,5.8690
2023-04-09T01:20:36.624Z,5.8595
2023-04-09T01:21:37.746Z,5.8494
2023-04-09T01:22:38.938Z,5.8400
2023-04-09T01:23:40.152Z,5.8309
2023-04-09T01:24:41.281Z,5.8221
2023-04-09T01:25:42.347Z,5.8129
2023-04-09T01:26:43.599Z,5.8043
2023-04-09T01:27:44.718Z,5.7932
2023-04-09T01:28:45.820Z,5.7856
2023-04-09T01:29:47.063Z,5.7771
2023-04-09T01:30:48.247Z,5.7694
2023-04-09T01:31:49.360Z,5.7602
2023-04-09T01:32:50.479Z,5.7513
2023-04-09T01:33:51.668Z,5.7426
2023-04-09T01:34:52.741Z,5.7329
2023-04-09T01:35:53.870Z,5.7229
2023-04-09T01:36:54.995Z,5.7122
2023-04-09T01:37:56.119Z,5.7044
2023-04-09T01:38:57.277Z,5.6962
2023-04-09T01:39:58.369Z,5.6878
2023-04-09T01:40:59.512Z,5.6785
2023-04-09T01:42:00.605Z,5.6695
2023-04-09T01:43:01.720Z,5.6602
2023-04-09T01:44:02.852Z,5.6510
2023-04-09T01:45:03.930Z,5.6377
2023-04-09T01:46:05.102Z,5.6248
2023-04-09T01:47:06.193Z,5.6144
2023-04-09T01:48:07.349Z,5.6051
2023-04-09T01:49:08.476Z,5.5946
2023-04-09T01:50:09.550Z,5.5835
2023-04-09T01:51:10.668Z,5.5729
2023-04-09T01:52:11.792Z,5.5638
2023-04-09T01:53:12.933Z,5.5522
2023-04-09T01:54:14.216Z,5.5421
2023-04-09T01:55:15.315Z,5.5327
2023-04-09T01:56:16.412Z,5.5229
2023-04-09T01:57:17.512Z,5.5131
2023-04-09T01:58:18.592Z,5.5032
2023-04-09T01:59:19.787Z,5.4925
2023-04-09T02:00:20.957Z,5.4833
2023-04-09T02:01:22.099Z,5.4740
2023-04-09T02:02:23.298Z,5.4663
2023-04-09T02:03:24.528Z,5.4575
2023-04-09T02:04:25.757Z,5.4474
2023-04-09T02:05:26.920Z,5.4391
2023-04-09T02:06:28.035Z,5.4327
2023-04-09T02:07:29.097Z,5.4266
2023-04-09T02:08:30.293Z,5.4191
2023-04-09T02:09:31.353Z,5.4131
2023-04-09T02:10:32.545Z,5.4059
2023-04-09T02:11:33.652Z,5.3997
2023-04-09T02:12:34.872Z,5.3933
2023-04-09T02:13:36.012Z,5.3879
2023-04-09T02:14:37.101Z,5.3808
2023-04-09T02:15:38.249Z,5.3752
2023-04-09T02:16:39.400Z,5.3668
2023-04-09T02:17:40.537Z,5.3580
2023-04-09T02:18:41.693Z,5.3533
2023-04-09T02:19:42.872Z,5.3490
2023-04-09T02:20:44.052Z,5.3464
2023-04-09T02:21:45.186Z,5.3446
2023-04-09T02:22:46.337Z,5.3427
2023-04-09T02:23:47.452Z,5.3416
2023-04-09T02:24:48.587Z,5.3395
2023-04-09T02:25:49.813Z,5.3353
2023-04-09T02:26:50.958Z,5.3319
2023-04-09T02:27:52.149Z,5.3259
2023-04-09T02:28:53.617Z,5.3204
2023-04-09T02:29:55.123Z,5.3135
2023-04-09T02:30:56.385Z,5.3102
2023-04-09T02:31:57.532Z,5.3071
2023-04-09T02:32:58.713Z,5.3029
2023-04-09T02:33:59.805Z,5.2991
2023-04-09T02:35:00.895Z,5.2956
2023-04-09T02:36:02.001Z,5.2915
2023-04-09T02:37:03.143Z,5.2887
2023-04-09T02:38:04.249Z,5.2834
2023-04-09T02:39:05.390Z,5.2780
2023-04-09T02:40:06.516Z,5.2735
2023-04-09T02:41:07.628Z,5.2685
2023-04-09T02:42:08.720Z,5.2648
2023-04-09T02:43:09.980Z,5.2634
2023-04-09T02:44:11.174Z,5.2643
2023-04-09T02:45:12.253Z,5.2657
2023-04-09T02:46:13.438Z,5.2653
2023-04-09T02:47:14.562Z,5.2667
2023-04-09T02:48:15.677Z,5.2676
2023-04-09T02:49:16.771Z,5.2669
2023-04-09T02:50:17.982Z,5.2646
2023-04-09T02:51:19.088Z,5.2638
2023-04-09T02:52:20.238Z,5.2623
2023-04-09T02:53:21.661Z,5.2607
2023-04-09T02:54:22.806Z,5.2587
2023-04-09T02:55:24.001Z,5.2565
2023-04-09T02:56:25.105Z,5.2514
2023-04-09T02:57:26.271Z,5.2472
2023-04-09T02:58:27.388Z,5.2416
2023-04-09T02:59:28.519Z,5.2342
2023-04-09T03:00:29.704Z,5.2264
2023-04-09T03:01:30.872Z,5.2192
2023-04-09T03:02:32.241Z,5.2107
2023-04-09T03:03:33.744Z,5.2023
2023-04-09T03:04:34.859Z,5.1941
2023-04-09T03:05:36.015Z,5.1863
2023-04-09T03:06:37.202Z,5.1780
2023-04-09T03:07:38.324Z,5.1681
2023-04-09T03:08:39.499Z,5.1596
2023-04-09T03:09:40.621Z,5.1510
2023-04-09T03:10:41.736Z,5.1426
2023-04-09T03:11:42.934Z,5.1344
2023-04-09T03:12:44.033Z,5.1234
2023-04-09T03:13:45.138Z,5.1126
2023-04-09T03:14:46.266Z,5.1008
2023-04-09T03:15:47.421Z,5.0904
2023-04-09T03:16:48.611Z,5.0792
2023-04-09T03:17:49.825Z,5.0691
2023-04-09T03:18:51.122Z,5.0605
2023-04-09T03:19:52.428Z,5.0520
2023-04-09T03:20:53.536Z,5.0440
2023-04-09T03:21:54.653Z,5.0379
2023-04-09T03:22:55.828Z,5.0304
2023-04-09T03:23:56.957Z,5.0233
2023-04-09T03:24:58.027Z,5.0153
2023-04-09T03:25:59.162Z,5.0093
2023-04-09T03:27:00.261Z,5.0013
2023-04-09T03:28:01.471Z,4.9906
2023-04-09T03:29:02.577Z,4.9800
2023-04-09T03:30:03.718Z,4.9710
2023-04-09T03:31:04.843Z,4.9631
2023-04-09T03:32:05.983Z,4.9545
2023-04-09T03:33:07.101Z,4.9461
2023-04-09T03:34:08.231Z,4.9386
2023-04-09T03:35:09.350Z,4.9300
2023-04-09T03:36:10.459Z,4.9243
2023-04-09T03:37:11.542Z,4.9167
2023-04-09T03:38:12.696Z,4.9092
2023-04-09T03:39:13.835Z,4.9023
2023-04-09T03:40:14.939Z,4.8934
2023-04-09T03:41:16.096Z,4.8875
2023-04-09T03:42:17.211Z,4.8818
2023-04-09T03:43:18.437Z,4.8760
2023-04-09T03:44:19.594Z,4.8693
2023-04-09T03:45:20.712Z,4.8625
2023-04-09T03:46:21.833Z,4.8572
2023-04-09T03:47:22.952Z,4.8491
2023-04-09T03:48:24.091Z,4.8420
2023-04-09T03:49:25.276Z,4.8338
2023-04-09T03:50:26.488Z,4.8250
2023-04-09T03:51:27.614Z,4.8164
2023-04-09T03:52:28.787Z,4.8082
2023-04-09T03:53:29.932Z,4.8010
2023-04-09T03:54:31.047Z,4.7915
2023-04-09T03:55:32.190Z,4.7835
2023-04-09T03:56:33.301Z,4.7740
2023-04-09T03:57:34.455Z,4.7664
2023-04-09T03:58:35.677Z,4.7585
2023-04-09T03:59:36.765Z,4.7496
2023-04-09T04:00:38.901Z,4.7408
2023-04-09T04:01:40.178Z,4.7305
2023-04-09T04:02:41.456Z,4.7253
2023-04-09T04:03:43.121Z,4.7236
2023-04-09T04:04:44.730Z,4.7268
2023-04-09T04:05:45.919Z,4.7328
2023-04-09T04:06:47.103Z,4.7430
2023-04-09T04:07:48.174Z,4.7562
2023-04-09T04:08:49.326Z,4.7692
2023-04-09T04:09:50.521Z,4.7785
2023-04-09T04:10:51.623Z,4.7901
2023-04-09T04:11:52.715Z,4.8019
2023-04-09T04:12:53.996Z,4.8143
2023-04-09T04:13:55.162Z,4.8233
2023-04-09T04:14:56.310Z,4.8298
2023-04-09T04:15:57.521Z,4.8352
2023-04-09T04:16:58.748Z,4.8369
2023-04-09T04:17:59.855Z,4.8338
2023-04-09T04:19:00.978Z,4.8276
2023-04-09T04:20:02.344Z,4.8215
2023-04-09T04:21:03.524Z,4.8129
2023-04-09T04:22:04.641Z,4.8045
2023-04-09T04:23:05.846Z,4.7994
2023-04-09T04:24:07.022Z,4.7937
2023-04-09T04:25:08.144Z,4.7857
2023-04-09T04:26:09.276Z,4.7809
2023-04-09T04:27:10.364Z,4.7789
2023-04-09T04:28:11.579Z,4.7792
2023-04-09T04:29:12.738Z,4.7798
2023-04-09T04:30:13.925Z,4.7791
2023-04-09T04:31:15.099Z,4.7843
2023-04-09T04:32:16.210Z,4.7932
2023-04-09T04:33:17.327Z,4.8082
2023-04-09T04:34:18.496Z,4.8237
2023-04-09T04:35:19.669Z,4.8409
2023-04-09T04:36:20.769Z,4.8577
2023-04-09T04:37:21.963Z,4.8755
2023-04-09T04:38:23.024Z,4.8932
2023-04-09T04:39:24.211Z,4.9112
2023-04-09T04:40:25.315Z,4.9304
2023-04-09T04:41:26.452Z,4.9515
2023-04-09T04:42:27.525Z,4.9713
2023-04-09T04:43:28.747Z,4.9945
2023-04-09T04:44:29.842Z,5.0181
2023-04-09T04:45:31.023Z,5.0365
2023-04-09T04:46:32.130Z,5.0525
2023-04-09T04:47:33.270Z,5.0680
2023-04-09T04:48:34.392Z,5.0810
2023-04-09T04:49:35.561Z,5.0923
2023-04-09T04:50:36.700Z,5.1064
2023-04-09T04:51:37.853Z,5.1241
2023-04-09T04:52:38.989Z,5.1406
2023-04-09T04:53:40.199Z,5.1585
2023-04-09T04:54:41.376Z,5.1762
2023-04-09T04:55:42.557Z,5.1938
2023-04-09T04:56:43.688Z,5.2113
2023-04-09T04:57:44.839Z,5.2265
2023-04-09T04:58:46.019Z,5.2437
2023-04-09T04:59:47.176Z,5.2595
2023-04-09T05:00:48.278Z,5.2757
2023-04-09T05:01:49.452Z,5.2916
2023-04-09T05:02:50.597Z,5.3052
2023-04-09T05:03:51.926Z,5.3185
2023-04-09T05:04:53.089Z,5.3313
2023-04-09T05:05:54.275Z,5.3412
2023-04-09T05:06:55.374Z,5.3467
2023-04-09T05:07:56.498Z,5.3517
2023-04-09T05:08:57.637Z,5.3556
2023-04-09T05:09:58.799Z,5.3611
2023-04-09T05:10:59.941Z,5.3665
2023-04-09T05:12:01.089Z,5.3724
2023-04-09T05:13:02.220Z,5.3758
2023-04-09T05:14:03.360Z,5.3766
2023-04-09T05:15:04.512Z,5.3752
2023-04-09T05:16:05.677Z,5.3709
2023-04-09T05:17:06.780Z,5.3644
2023-04-09T05:18:07.941Z,5.3565
2023-04-09T05:19:09.042Z,5.3485
2023-04-09T05:20:10.161Z,5.3408
2023-04-09T05:21:11.405Z,5.3330
2023-04-09T05:22:12.609Z,5.3232
2023-04-09T05:23:13.748Z,5.3145
2023-04-09T05:24:14.912Z,5.3058
2023-04-09T05:25:16.226Z,5.2979
2023-04-09T05:26:17.784Z,5.2897
2023-04-09T05:27:18.936Z,5.2820
2023-04-09T05:28:20.112Z,5.2753
2023-04-09T05:29:21.231Z,5.2672
2023-04-09T05:30:22.490Z,5.2578
2023-04-09T05:31:23.632Z,5.2494
2023-04-09T05:32:24.838Z,5.2424
2023-04-09T05:33:26.026Z,5.2357
2023-04-09T05:34:27.198Z,5.2296
2023-04-09T05:35:28.345Z,5.2252
2023-04-09T05:36:29.508Z,5.2210
2023-04-09T05:37:30.714Z,5.2163
2023-04-09T05:38:31.908Z,5.2142
2023-04-09T05:39:33.101Z,5.2126
2023-04-09T05:40:34.328Z,5.2124
2023-04-09T05:41:35.488Z,5.2127
2023-04-09T05:42:36.662Z,5.2131
2023-04-09T05:43:37.850Z,5.2130
2023-04-09T05:44:39.024Z,5.2114
2023-04-09T05:45:40.181Z,5.2093
2023-04-09T05:46:41.465Z,5.2073
2023-04-09T05:47:42.619Z,5.2098
2023-04-09T05:48:43.801Z,5.2098
2023-04-09T05:49:44.954Z,5.2104
2023-04-09T05:50:54.425Z,5.2109
2023-04-09T05:51:48.153Z,5.2098
2023-04-09T05:52:49.350Z,5.2097
2023-04-09T05:53:50.697Z,5.2105
2023-04-09T05:54:52.129Z,5.2115
2023-04-09T05:55:53.393Z,5.2118
2023-04-09T05:56:54.537Z,5.2108
2023-04-09T05:57:55.777Z,5.2108
2023-04-09T05:58:57.059Z,5.2101
2023-04-09T05:59:58.237Z,5.2112
2023-04-09T06:00:59.475Z,5.2109
2023-04-09T06:02:00.632Z,5.2111
2023-04-09T06:03:01.880Z,5.2122
2023-04-09T06:04:03.723Z,5.2133
2023-04-09T06:05:05.355Z,5.2146
2023-04-09T06:06:06.504Z,5.2171
2023-04-09T06:07:07.690Z,5.2193
2023-04-09T06:08:08.826Z,5.2217
2023-04-09T06:09:09.999Z,5.2220
2023-04-09T06:10:11.126Z,5.2225
2023-04-09T06:11:12.444Z,5.2251
2023-04-09T06:12:13.547Z,5.2270
2023-04-09T06:13:14.724Z,5.2290
2023-04-09T06:14:15.907Z,5.2319
2023-04-09T06:15:17.229Z,5.2336
2023-04-09T06:16:18.332Z,5.2363
2023-04-09T06:17:19.489Z,5.2390
2023-04-09T06:18:20.725Z,5.2438
2023-04-09T06:19:21.889Z,5.2501
2023-04-09T06:20:23.160Z,5.2579
2023-04-09T06:21:24.393Z,5.2692
2023-04-09T06:22:25.593Z,5.2809
2023-04-09T06:23:26.762Z,5.2925
2023-04-09T06:24:27.922Z,5.3071
2023-04-09T06:25:29.142Z,5.3249
2023-04-09T06:26:30.310Z,5.3420
2023-04-09T06:27:31.491Z,5.3541
2023-04-09T06:28:32.706Z,5.3663
2023-04-09T06:29:33.896Z,5.3798
2023-04-09T06:30:34.570Z,5.3946
2023-04-09T06:31:35.850Z,5.4107
2023-04-09T06:32:46.968Z,5.4258
2023-04-09T06:33:38.977Z,5.4420
2023-04-09T06:34:40.160Z,5.4619
2023-04-09T06:35:41.309Z,5.4824
2023-04-09T06:36:42.470Z,5.5004
2023-04-09T06:37:43.606Z,5.5142
2023-04-09T06:38:44.993Z,5.5307
2023-04-09T06:39:59.968Z,5.5469
2023-04-09T06:40:48.060Z,5.5649
2023-04-09T06:41:49.268Z,5.5827
2023-04-09T06:42:50.467Z,5.6019
2023-04-09T06:43:51.755Z,5.6197
2023-04-09T06:44:53.260Z,5.6450
2023-04-09T06:45:54.401Z,5.6698
2023-04-09T06:46:55.650Z,5.6920
2023-04-09T06:47:57.046Z,5.7175
2023-04-09T06:48:58.124Z,5.7449
2023-04-09T06:49:59.261Z,5.7717
2023-04-09T06:51:00.392Z,5.7963
2023-04-09T06:52:01.602Z,5.8201
2023-04-09T06:53:02.742Z,5.8452
2023-04-09T06:54:03.900Z,5.8765
2023-04-09T06:55:04.976Z,5.9079
2023-04-09T06:56:06.178Z,5.9409
2023-04-09T06:57:07.305Z,5.9771
2023-04-09T06:58:08.407Z,6.0162
2023-04-09T06:59:09.625Z,6.0563
2023-04-09T07:00:10.762Z,6.0976
2023-04-09T07:01:11.898Z,6.1344
2023-04-09T07:02:13.086Z,6.1648
2023-04-09T07:03:14.454Z,6.1982
2023-04-09T07:04:15.820Z,6.2350
2023-04-09T07:05:17.090Z,6.2651
2023-04-09T07:06:18.214Z,6.2971
2023-04-09T07:07:19.390Z,6.3286
2023-04-09T07:08:20.468Z,6.3653
2023-04-09T07:09:21.605Z,6.4075
2023-04-09T07:10:22.770Z,6.4459
2023-04-09T07:11:23.929Z,6.4849
2023-04-09T07:12:25.032Z,6.5265
2023-04-09T07:13:26.157Z,6.5768
2023-04-09T07:14:27.267Z,6.6284
2023-04-09T07:15:28.386Z,6.6769
2023-04-09T07:16:29.569Z,6.7270
2023-04-09T07:17:30.746Z,6.7840
2023-04-09T07:18:31.836Z,6.8356
2023-04-09T07:19:32.963Z,6.8856
2023-04-09T07:20:34.106Z,6.9418
2023-04-09T07:21:35.280Z,6.9978
2023-04-09T07:22:36.338Z,7.0574
2023-04-09T07:23:37.526Z,7.1154
2023-04-09T07:24:38.620Z,7.1609
2023-04-09T07:25:39.742Z,7.2047
2023-04-09T07:26:40.810Z,7.2508
2023-04-09T07:27:42.015Z,7.2969
2023-04-09T07:28:43.161Z,7.3438
2023-04-09T07:29:44.375Z,7.3963
2023-04-09T07:30:45.506Z,7.4475
2023-04-09T07:31:46.636Z,7.4971
2023-04-09T07:32:47.778Z,7.5516
2023-04-09T07:33:48.886Z,7.6120
2023-04-09T07:34:49.997Z,7.6669
2023-04-09T07:35:51.189Z,7.7215
2023-04-09T07:36:52.344Z,7.7732
2023-04-09T07:37:53.485Z,7.8195
2023-04-09T07:38:54.911Z,7.8685
2023-04-09T07:39:56.265Z,7.9179
2023-04-09T07:40:57.391Z,7.9663
2023-04-09T07:41:58.464Z,8.0195
2023-04-09T07:42:59.600Z,8.0783
2023-04-09T07:44:00.656Z,8.1335
2023-04-09T07:45:01.732Z,8.1855
2023-04-09T07:46:02.925Z,8.2394
2023-04-09T07:47:04.011Z,8.2785
2023-04-09T07:48:05.235Z,8.3062
2023-04-09T07:49:06.470Z,8.3252
2023-04-09T07:50:07.507Z,8.3390
2023-04-09T07:51:08.628Z,8.3455
2023-04-09T07:52:09.763Z,8.3455
2023-04-09T07:53:10.885Z,8.3514
2023-04-09T07:54:12.000Z,8.3627
2023-04-09T07:55:13.116Z,8.3789
2023-04-09T07:56:14.173Z,8.3834
2023-04-09T07:57:15.280Z,8.3808
2023-04-09T07:58:16.449Z,8.3796
2023-04-09T07:59:17.505Z,8.3750
2023-04-09T08:00:18.711Z,8.3654
2023-04-09T08:01:19.790Z,8.3589
2023-04-09T08:02:21.018Z,8.3490
2023-04-09T08:03:22.329Z,8.3290
2023-04-09T08:04:23.947Z,8.3030
2023-04-09T08:05:25.196Z,8.2788
2023-04-09T08:06:26.325Z,8.2550
2023-04-09T08:07:27.417Z,8.2274
2023-04-09T08:08:28.506Z,8.2051
2023-04-09T08:09:29.652Z,8.1889
2023-04-09T08:10:30.736Z,8.1705
2023-04-09T08:11:31.950Z,8.1449
2023-04-09T08:12:33.157Z,8.1183
2023-04-09T08:13:34.345Z,8.0901
2023-04-09T08:14:35.517Z,8.0590
2023-04-09T08:15:36.655Z,8.0251
2023-04-09T08:16:37.906Z,7.9981
2023-04-09T08:17:39.122Z,7.9786
2023-04-09T08:18:40.343Z,7.9671
2023-04-09T08:19:42.125Z,7.9757
2023-04-09T08:20:43.689Z,7.9974
2023-04-09T08:21:44.911Z,8.0255
2023-04-09T08:22:46.110Z,8.0503
2023-04-09T08:23:47.271Z,8.0751
2023-04-09T08:24:48.382Z,8.1075
2023-04-09T08:25:49.510Z,8.1422
2023-04-09T08:26:50.719Z,8.1791
2023-04-09T08:27:51.853Z,8.2198
2023-04-09T08:28:53.181Z,8.2636
2023-04-09T08:29:54.395Z,8.3127
2023-04-09T08:30:55.538Z,8.3647
2023-04-09T08:31:56.702Z,8.4022
2023-04-09T08:32:57.984Z,8.4321
2023-04-09T08:33:59.154Z,8.4548
2023-04-09T08:35:00.340Z,8.4848
2023-04-09T08:36:03.251Z,8.5224
2023-04-09T08:37:02.482Z,8.5577
2023-04-09T08:38:03.582Z,8.5829
2023-04-09T08:39:04.904Z,8.6053
2023-04-09T08:40:06.116Z,8.6318
2023-04-09T08:41:07.283Z,8.6685
2023-04-09T08:42:08.397Z,8.7061
2023-04-09T08:43:09.624Z,8.7388
2023-04-09T08:44:10.743Z,8.7614
2023-04-09T08:45:11.970Z,8.7795
2023-04-09T08:46:13.175Z,8.8000
2023-04-09T08:47:14.293Z,8.8203
2023-04-09T08:48:15.509Z,8.8399
2023-04-09T08:49:16.721Z,8.8567
2023-04-09T08:50:17.937Z,8.8807
2023-04-09T08:51:19.082Z,8.9061
2023-04-09T08:52:20.296Z,8.9327
2023-04-09T08:53:21.417Z,8.9553
2023-04-09T08:54:22.535Z,8.9723
2023-04-09T08:55:23.706Z,8.9815
2023-04-09T08:56:24.874Z,8.9878
2023-04-09T08:57:26.005Z,8.9964
2023-04-09T08:58:27.165Z,8.9997
2023-04-09T08:59:28.397Z,8.9909
2023-04-09T09:00:30.550Z,8.9738
2023-04-09T09:01:31.895Z,8.9610
2023-04-09T09:02:33.218Z,8.9445
2023-04-09T09:03:34.646Z,8.9213
2023-04-09T09:04:35.789Z,8.9037
2023-04-09T09:05:36.973Z,8.8915
2023-04-09T09:06:38.104Z,8.8831
2023-04-09T09:07:39.390Z,8.8803
2023-04-09T09:08:40.598Z,8.8774
2023-04-09T09:09:41.755Z,8.8759
2023-04-09T09:10:42.950Z,8.8762
2023-04-09T09:11:44.068Z,8.8789
2023-04-09T09:12:45.505Z,8.8742
2023-04-09T09:13:46.781Z,8.8515
2023-04-09T09:14:47.945Z,8.8331
2023-04-09T09:15:49.119Z,8.8128
2023-04-09T09:16:50.272Z,8.7987
2023-04-09T09:17:51.472Z,8.7888
2023-04-09T09:18:53.394Z,8.7899
2023-04-09T09:19:53.372Z,8.8030
2023-04-09T09:20:54.576Z,8.8281
2023-04-09T09:21:55.725Z,8.8506
2023-04-09T09:22:57.164Z,8.8647
2023-04-09T09:23:58.588Z,8.8663
2023-04-09T09:24:59.714Z,8.8778
2023-04-09T09:26:00.863Z,8.8847
2023-04-09T09:27:01.994Z,8.8919
2023-04-09T09:28:03.184Z,8.9038
2023-04-09T09:29:04.354Z,8.9179
2023-04-09T09:30:05.518Z,8.9356
2023-04-09T09:31:06.680Z,8.9552
2023-04-09T09:32:07.941Z,8.9746
2023-04-09T09:33:09.117Z,8.9977
2023-04-09T09:34:10.246Z,9.0219
2023-04-09T09:35:11.349Z,9.0426
2023-04-09T09:36:12.530Z,9.0655
2023-04-09T09:37:13.687Z,9.0924
2023-04-09T09:38:14.805Z,9.1215
2023-04-09T09:39:16.013Z,9.1493
2023-04-09T09:40:17.182Z,9.1708
2023-04-09T09:41:18.398Z,9.1911
2023-04-09T09:42:19.554Z,9.2096
2023-04-09T09:43:20.695Z,9.2190
2023-04-09T09:44:21.884Z,9.2290
2023-04-09T09:45:23.093Z,9.2383
2023-04-09T09:46:24.282Z,9.2478
2023-04-09T09:47:25.508Z,9.2578
2023-04-09T09:48:28.427Z,9.2653
2023-04-09T09:49:27.171Z,9.2711
2023-04-09T09:50:28.327Z,9.2788
2023-04-09T09:51:29.498Z,9.2855
2023-04-09T09:52:30.644Z,9.2912
2023-04-09T09:53:31.915Z,9.2962
2023-04-09T09:54:33.103Z,9.3022
2023-04-09T09:55:34.258Z,9.3112
2023-04-09T09:56:35.464Z,9.3210
2023-04-09T09:57:36.570Z,9.3336
2023-04-09T09:58:37.798Z,9.3443
2023-04-09T09:59:38.972Z,9.3543
2023-04-09T10:00:40.178Z,9.3641
2023-04-09T10:01:41.430Z,9.3739
2023-04-09T10:02:42.781Z,9.3841
2023-04-09T10:03:43.934Z,9.3915
2023-04-09T10:04:45.204Z,9.3993
2023-04-09T10:05:46.379Z,9.4096
2023-04-09T10:06:47.507Z,9.4213
2023-04-09T10:07:48.655Z,9.4327
2023-04-09T10:08:50.033Z,9.4449
2023-04-09T10:09:51.617Z,9.4572
2023-04-09T10:10:52.837Z,9.4671
2023-04-09T10:11:53.967Z,9.4765
2023-04-09T10:12:55.122Z,9.4834
2023-04-09T10:13:56.316Z,9.4928
2023-04-09T10:14:57.568Z,9.5079
2023-04-09T10:15:58.781Z,9.5264
2023-04-09T10:16:59.887Z,9.5408
2023-04-09T10:18:01.188Z,9.5562
2023-04-09T10:19:02.384Z,9.5747
2023-04-09T10:20:03.670Z,9.5928
2023-04-09T10:21:04.895Z,9.6097
2023-04-09T10:22:06.027Z,9.6289
2023-04-09T10:23:07.264Z,9.6399
2023-04-09T10:24:08.461Z,9.6390
2023-04-09T10:25:09.642Z,9.6454
2023-04-09T10:26:10.856Z,9.6466
2023-04-09T10:27:13.133Z,9.6441
2023-04-09T10:28:13.817Z,9.6525
2023-04-09T10:29:15.038Z,9.6732
2023-04-09T10:30:16.166Z,9.7007
2023-04-09T10:31:17.457Z,9.7253
2023-04-09T10:32:18.620Z,9.7475
2023-04-09T10:33:19.789Z,9.7696
2023-04-09T10:34:21.017Z,9.7929
2023-04-09T10:35:22.148Z,9.8139
2023-04-09T10:36:23.446Z,9.8320
2023-04-09T10:37:24.584Z,9.8505
2023-04-09T10:38:25.724Z,9.8668
2023-04-09T10:39:26.987Z,9.8817
2023-04-09T10:40:28.237Z,9.8974
2023-04-09T10:41:29.398Z,9.9123
2023-04-09T10:42:30.619Z,9.9304
2023-04-09T10:43:31.744Z,9.9542
2023-04-09T10:44:32.903Z,9.9850
2023-04-09T10:45:34.124Z,10.0160
2023-04-09T10:46:35.340Z,10.0488
2023-04-09T10:47:36.487Z,10.0805
2023-04-09T10:48:37.647Z,10.1130
2023-04-09T10:49:38.862Z,10.1447
2023-04-09T10:50:40.099Z,10.1751
2023-04-09T10:51:41.275Z,10.1950
2023-04-09T10:52:42.513Z,10.2129
2023-04-09T10:53:43.687Z,10.2348
2023-04-09T10:54:45.031Z,10.2626
2023-04-09T10:55:46.234Z,10.3022
2023-04-09T10:56:47.436Z,10.3431
2023-04-09T10:57:48.577Z,10.3788
2023-04-09T10:58:49.829Z,10.4147
2023-04-09T10:59:51.050Z,10.4594
2023-04-09T11:00:52.140Z,10.5062
2023-04-09T11:01:53.553Z,10.5541
2023-04-09T11:02:54.837Z,10.6105
2023-04-09T11:03:56.227Z,10.6665
2023-04-09T11:04:57.466Z,10.7201
2023-04-09T11:05:58.780Z,10.7813
2023-04-09T11:06:59.962Z,10.8497
2023-04-09T11:08:01.154Z,10.9029
2023-04-09T11:09:02.343Z,10.9505
2023-04-09T11:10:03.524Z,10.9881
2023-04-09T11:11:04.747Z,11.0212
2023-04-09T11:12:05.957Z,11.0519
2023-04-09T11:13:07.202Z,11.0856
2023-04-09T11:14:08.336Z,11.1203
2023-04-09T11:15:09.552Z,11.1582
2023-04-09T11:16:10.782Z,11.1957
2023-04-09T11:17:12.112Z,11.2370
2023-04-09T11:18:13.242Z,11.2883
2023-04-09T11:19:14.511Z,11.3434
2023-04-09T11:20:15.631Z,11.4075
2023-04-09T11:21:16.819Z,11.4828
2023-04-09T11:22:18.193Z,11.5529
2023-04-09T11:23:19.357Z,11.6247
2023-04-09T11:24:20.521Z,11.6893
2023-04-09T11:25:21.772Z,11.7503
2023-04-09T11:26:22.942Z,11.8121
2023-04-09T11:27:24.137Z,11.8695
2023-04-09T11:28:25.328Z,11.9318
2023-04-09T11:29:26.467Z,11.9949
2023-04-09T11:30:27.674Z,12.0568
2023-04-09T11:31:28.825Z,12.1248
2023-04-09T11:32:30.058Z,12.1984
2023-04-09T11:33:31.196Z,12.2924
2023-04-09T11:34:32.364Z,12.4506
2023-04-09T11:35:33.738Z,12.7446
2023-04-09T11:36:34.834Z,13.1440
2023-04-09T11:37:36.004Z,13.6068
2023-04-09T11:38:37.113Z,14.0797
2023-04-09T11:39:38.350Z,14.3951
2023-04-09T11:40:39.466Z,14.6597
2023-04-09T11:41:41.012Z,14.8440
2023-04-09T11:42:42.142Z,14.9621
2023-04-09T11:43:43.294Z,15.0563
2023-04-09T11:44:44.371Z,15.2207
2023-04-09T11:45:45.521Z,15.4672
2023-04-09T11:46:46.719Z,15.6528
2023-04-09T11:47:47.937Z,15.7628
2023-04-09T11:48:49.268Z,15.9028
2023-04-09T11:49:50.430Z,16.0744
2023-04-09T11:50:51.523Z,16.3405
2023-04-09T11:51:52.561Z,16.6977
2023-04-09T11:52:53.637Z,17.0843
2023-04-09T11:53:54.818Z,17.4863
2023-04-09T11:54:56.056Z,17.8738
2023-04-09T11:55:57.229Z,18.2507
2023-04-09T11:56:58.315Z,18.6262
2023-04-09T11:57:59.473Z,18.9976
2023-04-09T11:59:00.533Z,19.3823
2023-04-09T12:00:03.819Z,19.7645
2023-04-09T12:01:03.733Z,20.1645
2023-04-09T12:02:04.904Z,20.5400
2023-04-09T12:03:06.350Z,20.8995
2023-04-09T12:04:07.926Z,21.2527
2023-04-09T12:05:09.102Z,21.5858
2023-04-09T12:06:09.655Z,21.9086
2023-04-09T12:07:10.657Z,22.2236
2023-04-09T12:08:11.693Z,22.5440
2023-04-09T12:09:12.733Z,22.8271
2023-04-09T12:10:13.741Z,23.0878
2023-04-09T12:11:14.691Z,23.3209
2023-04-09T12:12:15.753Z,23.5386
2023-04-09T12:13:16.762Z,23.7779
2023-04-09T12:14:17.786Z,24.0147
2023-04-09T12:15:18.796Z,24.2569
2023-04-09T12:16:19.822Z,24.5026
2023-04-09T12:17:20.765Z,24.7199
2023-04-09T12:18:21.756Z,24.9398
2023-04-09T12:19:22.799Z,25.1596
2023-04-09T12:20:23.883Z,25.3673
2023-04-09T12:21:24.895Z,25.5705
2023-04-09T12:22:25.907Z,25.7573
2023-04-09T12:23:26.930Z,25.9100
2023-04-09T12:24:27.918Z,26.0656
2023-04-09T12:25:28.883Z,26.2236
2023-04-09T12:26:29.882Z,26.3825
2023-04-09T12:27:32.847Z,26.5176
2023-04-09T12:28:32.525Z,26.6665
2023-04-09T12:29:33.487Z,26.8119
2023-04-09T12:30:34.453Z,26.9527
2023-04-09T12:31:35.480Z,27.0807
2023-04-09T12:32:36.447Z,27.1768
2023-04-09T12:33:37.453Z,27.2604
2023-04-09T12:34:38.426Z,27.3431
2023-04-09T12:35:39.528Z,27.4408
2023-04-09T12:36:40.478Z,27.5280
2023-04-09T12:37:41.405Z,27.6113
2023-04-09T12:38:42.336Z,27.6729